Time;durP1;ratioP1;P1;durP2;ratioP2;P2;SDS_P1;SDS_P2;PMS_P1;PMS_P2;Temp;Humidity;BMP_temperature;BMP_pressure;BME280_temperature;BME280_humidity;BME280_pressure;Samples;Min_cycle;Max_cycle;Signal;HPM_P1;HPM_P2
2022/07/19 00:00:46;;;;;;;0.00;0.00;;;;;;;18.98;63.02;100780.13;5070883;28;20198;-73
2022/07/19 00:03:12;;;;;;;0.00;0.00;;;;;;;18.91;63.58;100776.38;5070777;28;20204;-72
2022/07/19 00:05:37;;;;;;;0.00;0.00;;;;;;;18.77;63.83;100776.84;5070937;28;20196;-72
2022/07/19 00:08:03;;;;;;;0.00;0.00;;;;;;;18.66;64.45;100778.53;5070332;28;20172;-72
2022/07/19 00:10:28;;;;;;;0.77;0.77;;;;;;;18.47;65.21;100775.66;5070862;28;20209;-73
2022/07/19 00:12:53;;;;;;;0.00;0.00;;;;;;;18.26;66.10;100776.72;5070721;28;20627;-72
2022/07/19 00:15:19;;;;;;;0.00;0.00;;;;;;;18.21;65.78;100776.16;5069464;28;20170;-71
2022/07/19 00:17:46;;;;;;;0.00;0.00;;;;;;;18.30;65.79;100774.84;5070512;28;20638;-72
2022/07/19 00:20:13;;;;;;;0.10;0.10;;;;;;;18.22;66.15;100784.09;5070077;28;20174;-72
2022/07/19 00:22:39;;;;;;;0.00;0.00;;;;;;;18.11;65.82;100780.28;5069337;28;20175;-72
2022/07/19 00:25:05;;;;;;;0.10;0.10;;;;;;;18.19;65.88;100781.25;5070657;28;20202;-71
2022/07/19 00:27:30;;;;;;;0.00;0.00;;;;;;;18.27;66.20;100786.63;5068985;28;20182;-73
2022/07/19 00:29:56;;;;;;;0.00;0.00;;;;;;;18.24;66.34;100789.31;5069034;28;20170;-72
2022/07/19 00:32:21;;;;;;;0.00;0.00;;;;;;;18.08;66.55;100784.56;5070902;28;20178;-72
2022/07/19 00:34:47;;;;;;;0.00;0.00;;;;;;;18.02;67.02;100782.38;5069210;28;20174;-72
2022/07/19 00:37:12;;;;;;;0.00;0.00;;;;;;;17.94;67.56;100775.03;5069026;28;20170;-73
2022/07/19 00:39:37;;;;;;;0.00;0.00;;;;;;;17.97;67.66;100779.88;5068976;28;20586;-72
2022/07/19 00:42:03;;;;;;;0.00;0.00;;;;;;;18.02;67.57;100780.41;5070450;28;20190;-72
2022/07/19 00:44:30;;;;;;;0.00;0.00;;;;;;;17.98;67.27;100774.00;5070402;28;20190;-72
2022/07/19 00:46:56;;;;;;;0.00;0.00;;;;;;;17.93;67.73;100778.97;5068910;28;20171;-73
2022/07/19 00:49:21;;;;;;;0.00;0.00;;;;;;;17.83;68.17;100775.56;5070005;28;20232;-73
2022/07/19 00:51:51;;;;;;;0.00;0.00;;;;;;;17.84;68.50;100768.88;5070349;28;20179;-72
2022/07/19 00:54:17;;;;;;;0.00;0.00;;;;;;;17.90;68.29;100771.38;5070305;28;20657;-72
2022/07/19 00:56:47;;;;;;;0.00;0.00;;;;;;;17.88;67.82;100780.03;5068762;28;20202;-72
2022/07/19 00:59:13;;;;;;;0.47;0.40;;;;;;;17.77;67.72;100774.19;5070025;28;20171;-72
2022/07/19 01:01:39;;;;;;;0.00;0.00;;;;;;;17.68;67.74;100772.72;5072513;28;20177;-72
2022/07/19 01:04:04;;;;;;;0.00;0.00;;;;;;;17.69;68.36;100782.66;5073983;28;20236;-72
2022/07/19 01:06:30;;;;;;;0.00;0.00;;;;;;;17.63;68.55;100784.00;5072720;28;20166;-72
2022/07/19 01:08:55;;;;;;;0.00;0.00;;;;;;;17.52;68.89;100783.72;5073643;28;20650;-72
2022/07/19 01:11:21;;;;;;;0.00;0.00;;;;;;;17.48;69.23;100777.25;5073972;28;20179;-72
2022/07/19 01:13:48;;;;;;;0.00;0.00;;;;;;;17.39;69.16;100784.88;5072576;28;20639;-73
2022/07/19 01:16:13;;;;;;;0.00;0.00;;;;;;;17.35;69.49;100787.53;5073904;28;20260;-73
2022/07/19 01:18:39;;;;;;;0.00;0.00;;;;;;;17.32;69.51;100784.66;5073763;28;20652;-73
2022/07/19 01:21:04;;;;;;;0.00;0.00;;;;;;;17.35;69.65;100784.75;5071883;28;20626;-72
2022/07/19 01:23:30;;;;;;;0.00;0.00;;;;;;;17.34;70.09;100782.34;5072352;28;20194;-72
2022/07/19 01:25:55;;;;;;;0.37;0.37;;;;;;;17.25;70.42;100780.53;5072389;28;20182;-72
2022/07/19 01:28:20;;;;;;;0.00;0.00;;;;;;;17.21;70.74;100784.31;5073291;28;20182;-72
2022/07/19 01:30:46;;;;;;;0.00;0.00;;;;;;;17.17;70.91;100778.69;5072334;28;20622;-72
2022/07/19 01:33:11;;;;;;;0.00;0.00;;;;;;;17.09;71.04;100778.84;5073504;28;20228;-73
2022/07/19 01:35:37;;;;;;;0.00;0.00;;;;;;;16.97;70.92;100785.19;5073477;28;20181;-73
2022/07/19 01:38:02;;;;;;;0.07;0.07;;;;;;;16.90;71.17;100785.75;5071674;28;20266;-72
2022/07/19 01:40:28;;;;;;;0.00;0.00;;;;;;;16.89;70.19;100791.63;5072116;28;20171;-73
2022/07/19 01:42:53;;;;;;;0.00;0.00;;;;;;;16.82;70.55;100788.63;5073435;28;20181;-73
2022/07/19 01:45:19;;;;;;;0.00;0.00;;;;;;;16.80;71.15;100790.94;5072053;28;20622;-72
2022/07/19 01:47:45;;;;;;;0.00;0.00;;;;;;;16.83;71.30;100795.75;5071865;28;20605;-72
2022/07/19 01:50:13;;;;;;;0.10;0.10;;;;;;;16.88;71.38;100793.56;5071517;28;20639;-73
2022/07/19 01:52:38;;;;;;;0.00;0.00;;;;;;;16.96;71.20;100789.09;5073160;28;20270;-72
2022/07/19 01:55:04;;;;;;;0.00;0.00;;;;;;;17.05;70.75;100791.72;5073121;28;20597;-72
2022/07/19 01:57:30;;;;;;;0.00;0.00;;;;;;;17.08;70.23;100791.03;5071677;28;20190;-73
2022/07/19 01:59:55;;;;;;;0.00;0.00;;;;;;;17.08;69.83;100794.63;5071410;28;20174;-72
2022/07/19 02:02:21;;;;;;;0.20;0.20;;;;;;;16.98;69.65;100792.31;5073099;28;20178;-73
2022/07/19 02:04:46;;;;;;;0.10;0.10;;;;;;;16.88;70.23;100788.03;5071521;28;20214;-72
2022/07/19 02:07:11;;;;;;;0.00;0.00;;;;;;;16.82;69.99;100796.91;5072698;28;20171;-72
2022/07/19 02:09:37;;;;;;;0.07;0.07;;;;;;;16.74;70.22;100793.09;5071432;28;20177;-73
2022/07/19 02:12:02;;;;;;;0.00;0.00;;;;;;;16.66;70.53;100788.50;5071841;28;20174;-72
2022/07/19 02:14:27;;;;;;;0.10;0.10;;;;;;;16.56;70.97;100795.25;5072746;28;20186;-72
2022/07/19 02:16:53;;;;;;;0.00;0.00;;;;;;;16.41;71.33;100790.41;5071371;28;20205;-72
2022/07/19 02:19:18;;;;;;;0.00;0.00;;;;;;;16.25;71.85;100792.22;5072108;28;20622;-72
2022/07/19 02:21:44;;;;;;;0.00;0.00;;;;;;;16.15;72.32;100798.16;5071339;28;20170;-72
2022/07/19 02:24:09;;;;;;;0.03;0.03;;;;;;;16.11;72.66;100794.47;5071349;28;20209;-72
2022/07/19 02:26:35;;;;;;;0.00;0.00;;;;;;;16.02;72.77;100789.84;5072807;28;20167;-72
2022/07/19 02:29:01;;;;;;;0.17;0.17;;;;;;;15.95;73.21;100792.34;5072305;28;20174;-73
2022/07/19 02:31:26;;;;;;;1.80;1.80;;;;;;;15.84;73.66;100793.91;5071047;28;20668;-73
2022/07/19 02:33:52;;;;;;;0.00;0.00;;;;;;;15.77;74.22;100794.47;5072156;28;20846;-72
2022/07/19 02:36:17;;;;;;;0.00;0.00;;;;;;;15.73;74.21;100800.97;5072374;28;20178;-72
2022/07/19 02:38:44;;;;;;;0.00;0.00;;;;;;;15.70;74.22;100788.69;5072015;28;20269;-72
2022/07/19 02:41:09;;;;;;;1.77;1.70;;;;;;;15.73;74.11;100798.22;5072310;28;20660;-72
2022/07/19 02:43:35;;;;;;;0.00;0.00;;;;;;;15.72;74.29;100791.09;5072230;28;20206;-73
2022/07/19 02:46:00;;;;;;;0.00;0.00;;;;;;;15.69;74.57;100792.56;5072346;28;20171;-73
2022/07/19 02:48:26;;;;;;;0.00;0.00;;;;;;;15.68;74.20;100801.19;5071667;28;20170;-71
2022/07/19 02:50:51;;;;;;;0.00;0.00;;;;;;;15.67;74.26;100797.63;5072029;28;20190;-72
2022/07/19 02:53:16;;;;;;;1.70;0.63;;;;;;;15.66;74.47;100792.47;5070937;28;20171;-72
2022/07/19 02:55:42;;;;;;;0.00;0.00;;;;;;;15.62;74.40;100794.25;5072169;28;20684;-73
2022/07/19 02:58:07;;;;;;;0.00;0.00;;;;;;;15.61;74.71;100804.47;5070372;28;20607;-72
2022/07/19 03:00:33;;;;;;;0.00;0.00;;;;;;;15.59;75.21;100800.41;5070800;28;20178;-72
2022/07/19 03:03:43;;;;;;;0.00;0.00;;;;;;;15.58;74.80;100801.56;5071713;28;20166;-73
2022/07/19 03:05:44;;;;;;;0.63;0.63;;;;;;;15.57;74.63;100806.25;5071710;28;20334;-73
2022/07/19 03:08:10;;;;;;;0.00;0.00;;;;;;;15.63;74.75;100798.66;5071474;28;20182;-73
2022/07/19 03:10:35;;;;;;;0.00;0.00;;;;;;;15.75;74.41;100798.69;5070500;28;20257;-72
2022/07/19 03:13:01;;;;;;;0.00;0.00;;;;;;;15.86;74.70;100801.84;5070438;28;20178;-74
2022/07/19 03:15:26;;;;;;;0.00;0.00;;;;;;;15.95;75.24;100795.09;5072004;28;20268;-73
2022/07/19 03:17:51;;;;;;;0.00;0.00;;;;;;;16.07;74.63;100797.09;5071513;28;20174;-73
2022/07/19 03:20:17;;;;;;;0.00;0.00;;;;;;;16.22;73.46;100799.22;5070931;28;20541;-73
2022/07/19 03:22:42;;;;;;;0.00;0.00;;;;;;;16.22;72.48;100799.22;5070088;28;20192;-73
2022/07/19 03:25:08;;;;;;;0.00;0.00;;;;;;;16.12;72.31;100798.84;5070081;28;20237;-73
2022/07/19 03:27:34;;;;;;;0.00;0.00;;;;;;;16.06;72.56;100801.81;5071303;28;20536;-73
2022/07/19 03:29:59;;;;;;;0.00;0.00;;;;;;;16.09;72.48;100805.03;5069726;28;20179;-72
2022/07/19 03:32:25;;;;;;;2.87;2.77;;;;;;;16.03;72.96;100791.44;5070088;28;20235;-72
2022/07/19 03:34:50;;;;;;;0.23;0.23;;;;;;;15.90;73.28;100794.50;5071545;28;20170;-73
2022/07/19 03:37:15;;;;;;;0.00;0.00;;;;;;;15.76;74.01;100792.03;5071074;28;20178;-74
2022/07/19 03:39:41;;;;;;;0.00;0.00;;;;;;;15.80;74.71;100798.50;5071091;28;20186;-73
2022/07/19 03:42:06;;;;;;;0.00;0.00;;;;;;;15.77;74.75;100790.91;5070129;28;20534;-72
2022/07/19 03:44:31;;;;;;;0.57;0.57;;;;;;;15.75;74.68;100795.91;5070970;28;20690;-73
2022/07/19 03:46:56;;;;;;;0.00;0.00;;;;;;;15.75;74.67;100793.97;5069900;28;20650;-73
2022/07/19 03:49:22;;;;;;;0.00;0.00;;;;;;;15.79;74.86;100796.06;5070955;28;20178;-72
2022/07/19 03:51:47;;;;;;;0.03;0.03;;;;;;;15.79;75.15;100796.88;5070971;28;20186;-74
2022/07/19 03:54:13;;;;;;;0.00;0.00;;;;;;;15.76;75.39;100795.56;5069900;28;20611;-73
2022/07/19 03:56:38;;;;;;;0.00;0.00;;;;;;;15.74;75.99;100797.06;5070910;28;20174;-73
2022/07/19 03:59:04;;;;;;;1.50;1.50;;;;;;;15.71;76.25;100800.50;5070645;28;20174;-73
2022/07/19 04:01:29;;;;;;;0.00;0.00;;;;;;;15.73;76.44;100803.72;5071208;28;20167;-72
2022/07/19 04:03:55;;;;;;;0.00;0.00;;;;;;;15.87;76.70;100809.75;5070985;28;20205;-72
2022/07/19 04:06:20;;;;;;;0.00;0.00;;;;;;;16.02;76.46;100802.81;5071123;28;20175;-73
2022/07/19 04:08:45;;;;;;;0.00;0.00;;;;;;;16.20;75.33;100809.78;5070381;28;20169;-74
2022/07/19 04:11:11;;;;;;;0.00;0.00;;;;;;;16.30;74.40;100819.56;5070748;28;20224;-73
2022/07/19 04:13:36;;;;;;;0.00;0.00;;;;;;;16.42;74.31;100824.31;5070681;28;20174;-74
2022/07/19 04:16:03;;;;;;;0.00;0.00;;;;;;;16.58;73.73;100819.72;5069447;28;20538;-74
2022/07/19 04:18:28;;;;;;;0.00;0.00;;;;;;;16.62;73.72;100817.88;5069024;28;20200;-73
2022/07/19 04:20:53;;;;;;;0.00;0.00;;;;;;;16.73;73.90;100818.28;5068855;28;20694;-74
2022/07/19 04:23:19;;;;;;;0.00;0.00;;;;;;;16.87;73.82;100824.28;5070476;28;20562;-73
2022/07/19 04:25:44;;;;;;;0.00;0.00;;;;;;;17.09;73.31;100820.25;5069362;28;20615;-73
2022/07/19 04:28:09;;;;;;;0.00;0.00;;;;;;;17.25;72.55;100830.25;5070161;28;20205;-74
2022/07/19 04:30:35;;;;;;;0.00;0.00;;;;;;;17.45;72.10;100841.50;5070725;28;20171;-74
2022/07/19 04:33:00;;;;;;;0.00;0.00;;;;;;;17.49;70.78;100831.34;5070395;28;20178;-74
2022/07/19 04:35:25;;;;;;;0.00;0.00;;;;;;;17.58;70.35;100820.19;5070802;28;20171;-74
2022/07/19 04:37:51;;;;;;;0.00;0.00;;;;;;;17.63;70.87;100830.97;5073215;28;20244;-74
2022/07/19 04:40:16;;;;;;;0.00;0.00;;;;;;;17.72;70.98;100832.50;5073107;28;20177;-74
2022/07/19 04:42:41;;;;;;;0.00;0.00;;;;;;;17.66;71.11;100833.06;5073389;28;20201;-74
2022/07/19 04:45:07;;;;;;;0.00;0.00;;;;;;;17.58;71.96;100840.31;5074500;28;20216;-74
2022/07/19 04:47:33;;;;;;;0.00;0.00;;;;;;;17.54;72.46;100836.66;5074254;28;20182;-73
2022/07/19 04:49:58;;;;;;;0.00;0.00;;;;;;;17.80;72.10;100844.56;5073733;28;20277;-73
2022/07/19 04:52:23;;;;;;;0.00;0.00;;;;;;;17.91;70.66;100840.13;5074397;28;20614;-74
2022/07/19 04:54:49;;;;;;;0.00;0.00;;;;;;;18.00;69.57;100842.75;5074351;28;20174;-74
2022/07/19 04:57:14;;;;;;;0.00;0.00;;;;;;;18.06;69.26;100844.09;5072858;28;20175;-73
2022/07/19 04:59:40;;;;;;;0.00;0.00;;;;;;;18.08;69.47;100844.56;5072551;28;20320;-74
2022/07/19 05:02:05;;;;;;;0.10;0.10;;;;;;;18.00;70.90;100843.56;5074337;28;20183;-74
2022/07/19 05:04:31;;;;;;;0.00;0.00;;;;;;;18.02;70.82;100844.00;5073993;28;20213;-74
2022/07/19 05:06:56;;;;;;;0.00;0.00;;;;;;;18.13;71.09;100850.66;5073747;28;20175;-74
2022/07/19 05:09:28;;;;;;;0.00;0.00;;;;;;;18.21;70.83;100848.06;5072653;28;20183;-82
2022/07/19 05:11:55;;;;;;;0.00;0.00;;;;;;;18.35;70.43;100845.69;5074220;28;20175;-73
2022/07/19 05:14:20;;;;;;;0.00;0.00;;;;;;;18.44;69.71;100849.91;5073952;28;20178;-74
2022/07/19 05:16:47;;;;;;;0.00;0.00;;;;;;;18.54;69.79;100853.34;5072349;28;20176;-75
2022/07/19 05:19:13;;;;;;;0.00;0.00;;;;;;;18.68;69.19;100856.50;5073046;28;20177;-75
2022/07/19 05:21:38;;;;;;;0.00;0.00;;;;;;;18.79;69.18;100854.00;5073548;28;20176;-75
2022/07/19 05:24:04;;;;;;;0.00;0.00;;;;;;;18.89;68.24;100857.03;5072429;28;20214;-75
2022/07/19 05:26:30;;;;;;;0.00;0.00;;;;;;;18.98;67.75;100854.91;5072477;28;20222;-75
2022/07/19 05:28:55;;;;;;;0.00;0.00;;;;;;;19.00;68.78;100849.81;5072067;28;20733;-75
2022/07/19 05:31:21;;;;;;;0.00;0.00;;;;;;;19.06;68.41;100849.53;5073634;28;20262;-74
2022/07/19 05:33:46;;;;;;;0.00;0.00;;;;;;;19.06;69.89;100853.09;5072316;28;20200;-75
2022/07/19 05:36:11;;;;;;;0.00;0.00;;;;;;;19.05;68.71;100859.78;5073332;28;20531;-75
2022/07/19 05:38:38;;;;;;;0.00;0.00;;;;;;;19.16;68.65;100858.09;5073218;28;20196;-75
2022/07/19 05:41:04;;;;;;;0.00;0.00;;;;;;;19.21;67.51;100857.00;5072092;28;20168;-75
2022/07/19 05:43:30;;;;;;;0.00;0.00;;;;;;;19.29;66.89;100858.78;5073301;28;20219;-76
2022/07/19 05:45:55;;;;;;;0.00;0.00;;;;;;;19.41;67.36;100855.13;5073287;28;20572;-76
2022/07/19 05:48:20;;;;;;;0.00;0.00;;;;;;;19.54;67.75;100851.91;5072783;28;20230;-75
2022/07/19 05:50:46;;;;;;;0.00;0.00;;;;;;;19.69;67.00;100858.56;5071760;28;20215;-75
2022/07/19 05:53:12;;;;;;;0.00;0.00;;;;;;;19.87;67.11;100859.72;5072035;28;20228;-75
2022/07/19 05:55:38;;;;;;;0.00;0.00;;;;;;;19.98;66.71;100854.41;5073070;28;20215;-75
2022/07/19 05:58:03;;;;;;;0.00;0.00;;;;;;;20.04;67.52;100854.91;5073054;28;20191;-76
2022/07/19 06:00:28;;;;;;;0.20;0.20;;;;;;;20.16;64.77;100860.31;5071672;28;20180;-75
2022/07/19 06:02:54;;;;;;;0.00;0.00;;;;;;;20.28;65.26;100864.91;5072947;28;20176;-76
2022/07/19 06:05:19;;;;;;;0.00;0.00;;;;;;;20.31;63.97;100864.16;5071614;28;20644;-75
2022/07/19 06:07:44;;;;;;;0.00;0.00;;;;;;;20.36;64.04;100861.09;5071456;28;20657;-75
2022/07/19 06:10:10;;;;;;;0.00;0.00;;;;;;;20.41;63.71;100871.91;5072776;28;20639;-74
2022/07/19 06:12:35;;;;;;;0.00;0.00;;;;;;;20.44;62.82;100863.66;5072790;28;20721;-76
2022/07/19 06:15:01;;;;;;;0.00;0.00;;;;;;;20.55;62.48;100865.84;5072825;28;20642;-75
2022/07/19 06:17:26;;;;;;;0.00;0.00;;;;;;;20.61;61.78;100865.16;5072741;28;20176;-74
2022/07/19 06:19:51;;;;;;;0.00;0.00;;;;;;;20.67;62.51;100860.09;5071979;28;20205;-74
2022/07/19 06:22:17;;;;;;;0.20;0.10;;;;;;;20.75;62.29;100865.41;5072878;28;20180;-74
2022/07/19 06:24:42;;;;;;;0.00;0.00;;;;;;;20.86;61.57;100873.16;5071420;28;20557;-74
2022/07/19 06:27:07;;;;;;;0.30;0.30;;;;;;;20.92;61.67;100869.66;5072168;28;20177;-74
2022/07/19 06:29:33;;;;;;;0.00;0.00;;;;;;;21.09;61.51;100868.34;5072496;28;20544;-74
2022/07/19 06:31:58;;;;;;;0.00;0.00;;;;;;;21.29;60.87;100869.13;5072775;28;20181;-73
2022/07/19 06:34:23;;;;;;;0.00;0.00;;;;;;;21.38;60.82;100867.66;5072507;28;20206;-74
2022/07/19 06:36:49;;;;;;;0.30;0.30;;;;;;;21.41;60.20;100865.28;5072360;28;20175;-74
2022/07/19 06:39:15;;;;;;;0.00;0.00;;;;;;;21.48;60.28;100877.34;5072296;28;20173;-74
2022/07/19 06:41:40;;;;;;;0.00;0.00;;;;;;;21.56;60.37;100875.47;5072349;28;20174;-74
2022/07/19 06:44:05;;;;;;;0.00;0.00;;;;;;;21.81;59.27;100875.81;5071651;28;20239;-74
2022/07/19 06:46:31;;;;;;;0.00;0.00;;;;;;;21.84;58.78;100873.06;5071962;28;20179;-75
2022/07/19 06:48:56;;;;;;;0.00;0.00;;;;;;;21.99;59.12;100879.63;5071850;28;20174;-74
2022/07/19 06:51:21;;;;;;;0.00;0.00;;;;;;;22.19;58.80;100869.16;5072052;28;20211;-74
2022/07/19 06:53:48;;;;;;;0.00;0.00;;;;;;;22.38;58.37;100874.53;5072086;28;20569;-74
2022/07/19 06:56:13;;;;;;;0.00;0.00;;;;;;;22.63;57.36;100879.59;5070591;28;20673;-73
2022/07/19 06:58:39;;;;;;;0.00;0.00;;;;;;;22.74;57.36;100874.94;5069772;28;20186;-74
2022/07/19 07:01:04;;;;;;;0.10;0.10;;;;;;;22.88;56.45;100875.09;5070462;28;20616;-71
2022/07/19 07:03:30;;;;;;;0.00;0.00;;;;;;;22.99;56.55;100875.16;5069642;28;20205;-72
2022/07/19 07:05:55;;;;;;;0.00;0.00;;;;;;;23.05;56.28;100880.00;5069459;28;20179;-72
2022/07/19 07:08:20;;;;;;;0.00;0.00;;;;;;;23.19;56.28;100884.09;5065985;28;20278;-72
2022/07/19 07:10:46;;;;;;;0.00;0.00;;;;;;;23.19;55.91;100878.53;5071640;28;20208;-72
2022/07/19 07:13:11;;;;;;;0.00;0.00;;;;;;;23.28;56.25;100876.19;5071379;28;20209;-73
2022/07/19 07:15:38;;;;;;;0.00;0.00;;;;;;;23.50;54.73;100883.53;5071618;28;20174;-72
2022/07/19 07:18:04;;;;;;;1.10;1.10;;;;;;;23.66;53.55;100878.47;5071206;28;20171;-72
2022/07/19 07:20:29;;;;;;;0.00;0.00;;;;;;;23.75;52.79;100878.13;5070699;28;20501;-72
2022/07/19 07:22:55;;;;;;;0.00;0.00;;;;;;;23.73;53.25;100867.34;5069945;28;20202;-72
2022/07/19 07:25:20;;;;;;;0.00;0.00;;;;;;;23.92;52.67;100871.03;5069773;28;20194;-72
2022/07/19 07:27:46;;;;;;;0.00;0.00;;;;;;;24.13;51.76;100865.50;5071224;28;20171;-72
2022/07/19 07:30:11;;;;;;;0.00;0.00;;;;;;;24.46;49.18;100863.66;5070973;28;20210;-74
2022/07/19 07:32:37;;;;;;;0.00;0.00;;;;;;;24.47;48.34;100863.28;5071284;28;20232;-75
2022/07/19 07:35:03;;;;;;;0.00;0.00;;;;;;;24.57;49.58;100858.88;5071221;28;20179;-73
2022/07/19 07:37:29;;;;;;;0.83;0.77;;;;;;;24.64;49.00;100853.31;5070423;28;20193;-73
2022/07/19 07:39:55;;;;;;;0.00;0.00;;;;;;;24.68;49.38;100862.50;5067146;28;20183;-72
2022/07/19 07:42:21;;;;;;;0.00;0.00;;;;;;;24.81;49.25;100866.50;5069650;28;20229;-73
2022/07/19 07:44:46;;;;;;;0.00;0.00;;;;;;;25.02;48.26;100865.72;5070843;28;20287;-72
2022/07/19 07:47:12;;;;;;;0.00;0.00;;;;;;;25.11;48.68;100851.34;5069466;28;20776;-73
2022/07/19 07:49:38;;;;;;;0.00;0.00;;;;;;;25.36;48.77;100862.53;5070518;28;20304;-72
2022/07/19 07:52:04;;;;;;;0.00;0.00;;;;;;;25.30;49.39;100856.50;5069599;28;20166;-73
2022/07/19 07:54:29;;;;;;;0.00;0.00;;;;;;;25.62;47.93;100861.28;5070731;28;20174;-72
2022/07/19 07:56:55;;;;;;;0.00;0.00;;;;;;;25.76;45.86;100853.66;5070593;28;20174;-72
2022/07/19 07:59:20;;;;;;;0.00;0.00;;;;;;;25.98;45.71;100851.56;5069218;28;20178;-72
2022/07/19 08:01:45;;;;;;;0.00;0.00;;;;;;;26.17;46.07;100846.66;5070755;28;20171;-72
2022/07/19 08:04:11;;;;;;;0.00;0.00;;;;;;;26.34;45.25;100845.78;5070740;28;20681;-71
2022/07/19 08:06:36;;;;;;;3.00;0.53;;;;;;;26.72;45.28;100845.94;5070614;28;20614;-73
2022/07/19 08:09:02;;;;;;;0.00;0.00;;;;;;;26.82;44.67;100847.88;5069868;28;20173;-72
2022/07/19 08:11:28;;;;;;;0.13;0.13;;;;;;;27.13;43.27;100846.84;5069045;28;20181;-72
2022/07/19 08:13:53;;;;;;;0.00;0.00;;;;;;;27.34;42.90;100843.03;5068126;28;20178;-72
2022/07/19 08:16:19;;;;;;;0.00;0.00;;;;;;;27.28;41.75;100839.06;5067118;28;20270;-72
2022/07/19 08:18:44;;;;;;;0.20;0.20;;;;;;;27.44;41.21;100841.31;5070017;28;20183;-72
2022/07/19 08:21:09;;;;;;;0.20;0.20;;;;;;;27.67;40.28;100847.09;5068167;28;20750;-72
2022/07/19 08:23:35;;;;;;;0.00;0.00;;;;;;;27.61;39.63;100847.94;5070752;28;20198;-72
2022/07/19 08:26:01;;;;;;;0.00;0.00;;;;;;;27.78;41.08;100844.97;5069227;28;20657;-73
2022/07/19 08:28:26;;;;;;;0.00;0.00;;;;;;;27.93;38.23;100842.00;5070184;28;20246;-73
2022/07/19 08:30:52;;;;;;;0.00;0.00;;;;;;;28.15;37.37;100840.47;5070685;28;20176;-73
2022/07/19 08:33:18;;;;;;;0.27;0.27;;;;;;;28.30;37.88;100835.50;5070331;28;20173;-73
2022/07/19 08:35:44;;;;;;;0.30;0.30;;;;;;;28.32;37.66;100838.66;5070153;28;20223;-73
2022/07/19 08:38:09;;;;;;;0.37;0.37;;;;;;;28.23;38.13;100842.00;5069966;28;20176;-72
2022/07/19 08:40:35;;;;;;;0.00;0.00;;;;;;;28.41;38.89;100831.31;5069029;28;20176;-73
2022/07/19 08:43:04;;;;;;;0.00;0.00;;;;;;;28.42;38.44;100834.91;5070234;28;20641;-72
2022/07/19 08:45:30;;;;;;;0.00;0.00;;;;;;;28.35;38.32;100835.00;5066403;28;20255;-73
2022/07/19 08:47:57;;;;;;;0.00;0.00;;;;;;;28.35;39.77;100830.19;5068568;28;20531;-72
2022/07/19 08:50:25;;;;;;;0.30;0.20;;;;;;;28.66;37.80;100827.31;5069460;28;20254;-72
2022/07/19 08:52:51;;;;;;;0.00;0.00;;;;;;;28.69;37.74;100821.63;5068949;28;20641;-72
2022/07/19 08:55:17;;;;;;;0.27;0.27;;;;;;;28.92;36.74;100820.06;5066961;28;20427;-73
2022/07/19 08:57:57;;;;;;;8.73;4.33;;;;;;;28.93;37.47;100830.91;5062522;28;20273;-72
2022/07/19 09:00:30;;;;;;;0.37;0.37;;;;;;;28.97;36.88;100820.38;5067510;28;20260;-73
2022/07/19 09:03:01;;;;;;;1.03;1.03;;;;;;;29.16;36.81;100818.84;5067409;28;20198;-72
2022/07/19 09:05:28;;;;;;;0.00;0.00;;;;;;;29.11;37.47;100818.56;5068444;28;20205;-73
2022/07/19 09:08:14;;;;;;;0.00;0.00;;;;;;;29.14;37.87;100820.50;5068268;28;20210;-73
2022/07/19 09:10:43;;;;;;;0.00;0.00;;;;;;;29.28;36.31;100817.41;5070181;28;20171;-73
2022/07/19 09:13:15;;;;;;;0.00;0.00;;;;;;;29.47;36.20;100811.03;5066272;28;20182;-73
2022/07/19 09:15:51;;;;;;;0.00;0.00;;;;;;;29.60;36.31;100808.38;5069304;28;20174;-74
2022/07/19 09:18:20;;;;;;;7.93;3.50;;;;;;;29.75;35.34;100817.31;5065173;28;20178;-72
2022/07/19 09:20:47;;;;;;;0.00;0.00;;;;;;;29.99;35.31;100809.59;5066560;28;20262;-72
2022/07/19 09:23:13;;;;;;;0.43;0.43;;;;;;;29.96;35.19;100805.63;5070075;28;20191;-72
2022/07/19 09:25:46;;;;;;;0.30;0.30;;;;;;;30.01;34.39;100805.09;5071833;28;20190;-72
2022/07/19 09:28:12;;;;;;;0.00;0.00;;;;;;;30.08;34.36;100798.53;5071490;28;20175;-73
2022/07/19 09:30:45;;;;;;;0.10;0.10;;;;;;;30.10;34.16;100801.72;5073305;28;20380;-73
2022/07/19 09:33:16;;;;;;;0.10;0.00;;;;;;;30.32;34.68;100791.53;5073172;28;20581;-72
2022/07/19 09:35:48;;;;;;;0.30;0.30;;;;;;;30.40;35.22;100789.34;5071632;28;20257;-72
2022/07/19 09:38:30;;;;;;;0.00;0.00;;;;;;;30.49;33.08;100795.16;5072844;28;20326;-72
2022/07/19 09:41:14;;;;;;;0.00;0.00;;;;;;;30.61;33.65;100790.84;5071884;28;20179;-73
2022/07/19 09:43:51;;;;;;;0.00;0.00;;;;;;;30.47;33.01;100786.34;5071518;28;20196;-72
2022/07/19 09:46:31;;;;;;;0.00;0.00;;;;;;;30.54;32.57;100779.75;5071499;28;20577;-73
2022/07/19 09:49:07;;;;;;;0.00;0.00;;;;;;;30.70;32.32;100783.38;5072476;28;20167;-73
2022/07/19 09:51:34;;;;;;;0.00;0.00;;;;;;;30.88;32.51;100779.31;5072817;28;20185;-73
2022/07/19 09:54:03;;;;;;;0.00;0.00;;;;;;;30.86;31.18;100778.94;5072780;28;20417;-73
2022/07/19 09:56:29;;;;;;;0.00;0.00;;;;;;;30.95;32.16;100776.28;5071711;28;20788;-73
2022/07/19 09:58:55;;;;;;;0.17;0.17;;;;;;;30.90;32.37;100779.66;5072049;28;20198;-72
2022/07/19 10:01:21;;;;;;;0.00;0.00;;;;;;;30.94;32.18;100771.88;5072951;28;20623;-73
2022/07/19 10:03:47;;;;;;;0.10;0.10;;;;;;;30.99;32.00;100772.13;5072668;28;20211;-73
2022/07/19 10:06:13;;;;;;;0.07;0.00;;;;;;;31.07;31.69;100767.09;5071310;28;20193;-73
2022/07/19 10:08:38;;;;;;;4.80;0.47;;;;;;;31.17;31.87;100771.66;5067799;28;20180;-73
2022/07/19 10:11:04;;;;;;;0.20;0.20;;;;;;;31.13;32.79;100768.13;5071085;28;20657;-73
2022/07/19 10:13:30;;;;;;;0.10;0.10;;;;;;;31.37;31.06;100754.56;5070416;28;20186;-73
2022/07/19 10:16:00;;;;;;;0.00;0.00;;;;;;;31.47;30.00;100756.31;5072681;28;20186;-73
2022/07/19 10:18:32;;;;;;;0.40;0.40;;;;;;;31.80;30.56;100756.97;5071330;28;20182;-73
2022/07/19 10:21:01;;;;;;;0.00;0.00;;;;;;;32.02;31.21;100750.66;5068327;28;20720;-73
2022/07/19 10:23:31;;;;;;;0.00;0.00;;;;;;;31.96;30.55;100754.03;5072140;28;20230;-73
2022/07/19 10:25:57;;;;;;;0.17;0.17;;;;;;;32.05;30.76;100749.75;5072597;28;20181;-73
2022/07/19 10:28:31;;;;;;;0.50;0.50;;;;;;;32.05;30.12;100752.56;5072123;28;20694;-73
2022/07/19 10:30:57;;;;;;;0.00;0.00;;;;;;;32.09;30.78;100750.41;5071156;28;20252;-73
2022/07/19 10:33:28;;;;;;;0.00;0.00;;;;;;;31.87;29.81;100739.81;5071410;28;20667;-73
2022/07/19 10:35:53;;;;;;;1.10;1.10;;;;;;;31.98;29.67;100744.34;5072428;28;20189;-73
2022/07/19 10:38:18;;;;;;;0.00;0.00;;;;;;;32.15;28.59;100735.28;5070589;28;20187;-73
2022/07/19 10:40:49;;;;;;;0.00;0.00;;;;;;;32.32;28.48;100730.31;5072608;28;20177;-73
2022/07/19 10:43:15;;;;;;;5.73;3.97;;;;;;;32.24;28.70;100728.91;5072213;28;20683;-73
2022/07/19 10:45:42;;;;;;;0.10;0.10;;;;;;;32.15;27.04;100728.84;5070806;28;20178;-73
2022/07/19 10:48:10;;;;;;;0.00;0.00;;;;;;;31.99;28.21;100724.09;5071866;28;20653;-73
2022/07/19 10:50:48;;;;;;;0.00;0.00;;;;;;;32.03;28.65;100719.09;5071606;28;20284;-73
2022/07/19 10:53:45;;;;;;;0.00;0.00;;;;;;;32.47;28.99;100720.09;5071925;28;20656;-73
2022/07/19 10:56:21;;;;;;;0.00;0.00;;;;;;;32.57;28.14;100720.22;5027160;28;20214;-73
2022/07/19 10:58:56;;;;;;;0.00;0.00;;;;;;;32.74;28.46;100711.09;5071932;28;20176;-74
2022/07/19 11:01:24;;;;;;;0.20;0.20;;;;;;;32.58;27.78;100707.63;5072148;28;20250;-74
2022/07/19 11:03:51;;;;;;;0.00;0.00;;;;;;;32.80;29.04;100700.75;5070668;28;20215;-74
2022/07/19 11:06:25;;;;;;;0.00;0.00;;;;;;;32.82;29.24;100697.50;5071436;28;20178;-74
2022/07/19 11:08:56;;;;;;;0.13;0.13;;;;;;;33.01;27.92;100695.63;5071999;28;20174;-74
2022/07/19 11:11:23;;;;;;;0.00;0.00;;;;;;;33.18;28.16;100693.38;5072489;28;20178;-74
2022/07/19 11:13:55;;;;;;;0.00;0.00;;;;;;;32.86;28.53;100686.84;5074108;28;20263;-73
2022/07/19 11:16:24;;;;;;;0.30;0.30;;;;;;;32.74;25.92;100687.66;5077055;28;20175;-74
2022/07/19 11:18:49;;;;;;;0.00;0.00;;;;;;;32.93;26.90;100683.75;5073078;28;20240;-73
2022/07/19 11:21:16;;;;;;;0.00;0.00;;;;;;;33.22;27.01;100682.69;5068177;28;20219;-74